Aérodrome :
LOGIN :

S'inscrire | Disclaimer

   EN    FR    IT 

 










Légende :    VFR   VFR Marginal   IFR   IFR Intensif   IFR Très Intensif
Visi : 
Plafond : 
>= 8 km
>= 3000ft
5 à 8 km
1000 à 3000 ft
1500m à 5 km
500 à 1000 ft
800 à 1500m
200 à 500 ft
< 800m
< 200 ft
Symboles :   Orages  Brouillard  Fortes neiges  Fortes précipitations  Vent > 20 kt
SIGMETs :   Divers  Orages  Givrage  Turbulence  Onde Orograph.  Cendres Volcan.







- Altitude de l'aérodrome : 240 ft
- Code IATA : VLC


LEVC - Valencia Manises

DERNIER METAR :
  • 211000Z VRB04KT 9999 SCT035 29/19 Q1020 NOSIG

METARs EXPIRÉS :
  • 210930Z 14005KT 050V180 9999 SCT030 29/19 Q1020 NOSIG
  • 210900Z VRB01KT 9999 SCT025 29/19 Q1020 NOSIG
  • 210830Z 14003KT 050V200 9999 SCT025 27/20 Q1020 NOSIG
  • 210800Z VRB01KT 9999 SCT025 27/21 Q1020 NOSIG
  • 210730Z 00000KT 9999 FEW025 27/21 Q1020 NOSIG

TAF TAF LEVC
Valide du 21 à 06h jusqu'au 22 à 06h UTC


210500Z 2106/2206 VRB03KT 9999 FEW025 TX31/2113Z TN19/2205Z
BECMG 2110/2112 12010KT
BECMG 2121/2123 VRB03KT
Pas de NOTAMs connus pour ce terrain.



MET'MAP, la Météo Aéronautique d'un coup d'oeil ! - Copyright ORBIFLY Décembre 2007 - Disclaimer

ORBIFLY MET'MAP TEAM :

Programmation & Développement : Alexandra Zaïnal
Conception & Développement : Baudouin d'Aumeries
Co-Programmation & Développement : Marc-Olivier Méhu
Soutien technique & logistique : Manuel Goepfert

Contact : metmap@orbifly.com




SOURCES & CREDITS :

   NOAA